Pottsboro, Texas
Current Conditions -  °F | °C
As of 5:15 AM on Saturday 25 Oct 2014 (Local Time) from KGYI Reporting Station
Clear Clear  
Wind Chill: 65°   Ceiling: Unl
Heat Index: 65°   Visibility: 10mi
Dew Point: 61°   Wind: 8mph
Humidity: 85%   Direction: 170°S
Pressure: 30.1"   Gusts: NA
Location:  33.76°N, 96.67°W
Report Text: KGYI 251015Z AUTO 17007KT 10SM CLR 19/16 A3010 RMK AO2 T01860160
Loading
Personal Weather Stations






























Interactive Weather Map New forecast layout! Learn more

10-Day Weather Forecast

Advertisements
Track Severe Weather on mobile